Time;durP1;ratioP1;P1;durP2;ratioP2;P2;SDS_P1;SDS_P2;PMS_P1;PMS_P2;Temp;Humidity;BMP_temperature;BMP_pressure;BME280_temperature;BME280_humidity;BME280_pressure;Samples;Min_cycle;Max_cycle;Signal;HPM_P1;HPM_P2
2023/07/21 00:01:12;;;;;;;7.40;1.67;;;;;;;20.03;53.50;100791.47;5082259;28;20426;-60
2023/07/21 00:03:39;;;;;;;8.50;1.30;;;;;;;19.93;53.19;100787.31;5116343;28;20048;-61
2023/07/21 00:06:07;;;;;;;5.18;2.05;;;;;;;19.50;54.04;100776.59;5125551;27;20047;-59
2023/07/21 00:08:35;;;;;;;2.83;1.58;;;;;;;19.48;54.63;100789.31;5137597;27;20055;-61
2023/07/21 00:11:03;;;;;;;7.80;1.60;;;;;;;19.37;54.55;100791.13;5134812;27;20510;-59
2023/07/21 00:13:35;;;;;;;4.25;1.52;;;;;;;19.45;54.29;100787.25;5116773;28;20051;-60
2023/07/21 00:16:04;;;;;;;3.97;1.45;;;;;;;19.64;53.69;100774.06;5099809;28;20062;-60
2023/07/21 00:18:32;;;;;;;8.30;1.65;;;;;;;19.64;53.25;100776.84;5116280;28;20414;-60
2023/07/21 00:20:59;;;;;;;5.50;1.42;;;;;;;19.56;53.86;100766.69;5123361;27;20042;-57
2023/07/21 00:23:27;;;;;;;7.75;1.60;;;;;;;19.36;54.58;100769.94;5123151;27;20392;-59
2023/07/21 00:25:55;;;;;;;7.68;1.70;;;;;;;19.13;55.47;100769.88;5112876;28;20074;-59
2023/07/21 00:28:25;;;;;;;3.55;1.60;;;;;;;19.34;54.83;100773.09;5116193;28;20043;-59
2023/07/21 00:30:52;;;;;;;4.30;1.40;;;;;;;19.40;53.48;100768.00;5135203;27;20051;-60
2023/07/21 00:33:19;;;;;;;3.35;1.40;;;;;;;19.63;52.07;100769.63;5125019;27;20043;-59
2023/07/21 00:35:47;;;;;;;4.88;1.15;;;;;;;19.59;51.51;100765.16;5116610;28;20055;-59
2023/07/21 00:38:14;;;;;;;5.85;1.40;;;;;;;19.73;51.51;100783.00;5115571;28;20051;-60
2023/07/21 00:40:41;;;;;;;3.65;1.55;;;;;;;19.52;52.78;100790.19;5115494;28;20050;-59
2023/07/21 00:43:09;;;;;;;4.32;1.40;;;;;;;19.53;51.98;100797.38;5115331;28;20047;-60
2023/07/21 00:45:37;;;;;;;3.72;1.40;;;;;;;19.50;51.47;100789.75;5097037;28;20051;-60
2023/07/21 00:48:09;;;;;;;5.55;1.60;;;;;;;19.37;51.74;100786.31;5112993;28;20051;-59
2023/07/21 00:50:47;;;;;;;6.15;1.60;;;;;;;19.21;53.61;100781.97;5095812;28;20059;-60
2023/07/21 00:53:15;;;;;;;11.65;1.80;;;;;;;19.10;53.85;100784.56;5115138;28;20056;-59
2023/07/21 00:55:42;;;;;;;3.03;1.42;;;;;;;19.13;54.49;100774.63;5108056;28;20056;-61
2023/07/21 00:58:10;;;;;;;3.78;1.85;;;;;;;18.98;55.68;100777.16;5113195;28;20051;-59
2023/07/21 01:00:39;;;;;;;8.35;1.88;;;;;;;18.96;56.34;100771.16;5096716;28;20043;-61
2023/07/21 01:03:09;;;;;;;4.85;1.80;;;;;;;18.73;57.19;100770.25;5096905;28;20050;-60
2023/07/21 01:05:42;;;;;;;3.42;1.73;;;;;;;18.72;58.13;100773.41;5113816;28;20055;-60
2023/07/21 01:08:11;;;;;;;4.68;1.70;;;;;;;18.91;58.57;100776.22;5114743;28;20047;-59
2023/07/21 01:10:40;;;;;;;6.85;2.00;;;;;;;18.98;58.82;100779.16;5096973;28;20047;-58
2023/07/21 01:13:09;;;;;;;5.80;1.60;;;;;;;19.27;58.52;100781.31;5096895;28;20058;-60
2023/07/21 01:15:43;;;;;;;6.45;1.58;;;;;;;19.16;58.17;100771.13;5095633;28;20047;-58
2023/07/21 01:18:12;;;;;;;2.97;1.50;;;;;;;18.70;59.19;100772.97;5115087;28;20048;-60
2023/07/21 01:20:39;;;;;;;2.88;1.35;;;;;;;18.70;60.19;100772.97;5096689;28;20027;-60
2023/07/21 01:23:12;;;;;;;4.70;1.63;;;;;;;18.53;59.63;100781.78;5096697;28;20406;-61
2023/07/21 01:25:40;;;;;;;4.57;1.70;;;;;;;18.44;61.12;100781.16;5113770;28;20067;-62
2023/07/21 01:28:09;;;;;;;2.95;1.55;;;;;;;18.65;61.19;100779.66;5124961;28;20055;-60
2023/07/21 01:30:38;;;;;;;5.63;1.85;;;;;;;18.51;61.32;100781.31;5134948;28;20047;-61
2023/07/21 01:33:07;;;;;;;5.60;1.75;;;;;;;18.47;61.75;100780.44;5096212;28;20051;-61
2023/07/21 01:35:36;;;;;;;5.53;1.60;;;;;;;18.70;61.89;100784.13;5094906;28;20051;-59
2023/07/21 01:38:05;;;;;;;3.97;1.85;;;;;;;18.47;62.63;100777.63;5103679;28;20090;-60
2023/07/21 01:40:35;;;;;;;4.05;1.70;;;;;;;18.25;62.60;100772.72;5074643;28;20055;-60
2023/07/21 01:43:03;;;;;;;4.53;1.30;;;;;;;18.18;61.71;100776.16;5076358;28;20060;-62
2023/07/21 01:45:30;;;;;;;4.43;1.55;;;;;;;18.29;62.55;100779.22;5093862;28;20071;-59
2023/07/21 01:47:58;;;;;;;4.03;1.42;;;;;;;17.97;62.37;100770.88;5075724;28;20055;-60
2023/07/21 01:50:26;;;;;;;4.80;1.45;;;;;;;17.88;63.31;100767.50;5089243;28;20052;-64
2023/07/21 01:52:54;;;;;;;5.22;1.58;;;;;;;18.27;62.62;100759.25;5060384;28;20511;-65
2023/07/21 01:55:40;;;;;;;7.03;1.40;;;;;;;18.11;62.76;100750.09;5076360;28;20052;-61
2023/07/21 01:58:08;;;;;;;2.60;1.27;;;;;;;17.84;62.43;100751.84;5074182;28;20055;-61
2023/07/21 02:00:39;;;;;;;2.80;1.35;;;;;;;17.83;62.96;100756.63;5063454;28;20057;-60
2023/07/21 02:03:17;;;;;;;2.75;1.20;;;;;;;18.08;61.97;100751.63;5071213;28;20574;-61
2023/07/21 02:05:46;;;;;;;5.10;1.58;;;;;;;18.30;61.87;100762.09;5066553;28;20043;-64
2023/07/21 02:08:14;;;;;;;3.00;1.40;;;;;;;18.47;61.24;100763.69;5096442;28;20043;-63
2023/07/21 02:10:42;;;;;;;5.00;1.60;;;;;;;18.50;61.59;100760.16;5100529;28;20044;-63
2023/07/21 02:13:31;;;;;;;2.55;1.20;;;;;;;18.30;61.93;100752.94;5094176;28;20052;-63
2023/07/21 02:15:58;;;;;;;2.83;1.40;;;;;;;18.09;62.46;100756.03;5093847;28;20056;-60
2023/07/21 02:18:26;;;;;;;3.47;1.50;;;;;;;18.36;62.43;100745.91;5094464;28;20071;-60
2023/07/21 02:20:53;;;;;;;5.63;1.80;;;;;;;18.39;62.07;100745.16;5074285;28;20102;-60
2023/07/21 02:23:21;;;;;;;4.60;1.52;;;;;;;18.13;62.78;100756.13;5089836;28;20078;-61
2023/07/21 02:25:49;;;;;;;3.47;1.50;;;;;;;17.74;64.12;100742.06;5091785;28;20051;-60
2023/07/21 02:28:16;;;;;;;3.38;1.75;;;;;;;17.74;64.79;100749.59;5073966;28;20060;-60
2023/07/21 02:30:43;;;;;;;3.17;1.63;;;;;;;17.68;64.91;100749.06;5082375;28;20049;-61
2023/07/21 02:33:10;;;;;;;4.07;1.55;;;;;;;17.74;64.84;100747.63;5071545;28;20040;-59
2023/07/21 02:35:38;;;;;;;4.00;1.58;;;;;;;17.77;64.98;100748.88;5089580;28;20059;-61
2023/07/21 02:38:05;;;;;;;4.85;1.45;;;;;;;17.41;66.35;100760.25;5108492;28;20044;-60
2023/07/21 02:40:33;;;;;;;4.40;1.67;;;;;;;17.57;66.40;100759.13;5086540;28;20068;-60
2023/07/21 02:43:00;;;;;;;5.07;2.00;;;;;;;17.81;65.86;100758.13;5074941;28;20040;-59
2023/07/21 02:45:28;;;;;;;4.07;1.95;;;;;;;17.76;66.22;100756.44;5074068;28;20064;-59
2023/07/21 02:47:55;;;;;;;4.45;1.85;;;;;;;17.59;66.07;100756.78;5059031;28;20051;-60
2023/07/21 02:50:24;;;;;;;4.95;1.92;;;;;;;17.44;67.10;100748.41;5093691;28;20427;-59
2023/07/21 02:52:51;;;;;;;4.15;1.80;;;;;;;17.44;66.89;100756.75;5055574;28;20714;-60
2023/07/21 02:55:19;;;;;;;3.88;1.92;;;;;;;17.11;68.73;100761.81;5083449;28;20048;-60
2023/07/21 02:57:48;;;;;;;3.80;1.85;;;;;;;17.13;69.08;100765.06;5092227;28;20054;-64
2023/07/21 03:00:18;;;;;;;3.95;1.77;;;;;;;17.07;70.08;100758.94;5091823;28;20052;-64
2023/07/21 03:02:59;;;;;;;5.32;2.08;;;;;;;17.34;69.53;100757.28;5077441;28;20847;-64
2023/07/21 03:05:29;;;;;;;5.63;2.42;;;;;;;17.58;68.56;100752.41;5074894;28;20052;-64
2023/07/21 03:07:57;;;;;;;13.40;2.63;;;;;;;17.32;70.00;100749.28;5075239;28;20161;-63
2023/07/21 03:10:24;;;;;;;4.22;1.73;;;;;;;17.36;69.89;100753.00;5091713;28;20067;-63
2023/07/21 03:12:52;;;;;;;3.45;1.83;;;;;;;17.22;70.78;100754.59;5076366;28;20055;-64
2023/07/21 03:15:25;;;;;;;5.75;1.92;;;;;;;17.22;70.43;100752.63;5072841;28;20052;-63
2023/07/21 03:18:01;;;;;;;3.88;1.90;;;;;;;17.28;68.77;100764.28;5089696;28;20535;-64
2023/07/21 03:20:34;;;;;;;3.95;1.80;;;;;;;17.09;69.28;100769.72;5078003;28;20059;-64
2023/07/21 03:23:06;;;;;;;3.55;1.88;;;;;;;17.00;70.33;100763.53;5078568;28;20048;-65
2023/07/21 03:25:34;;;;;;;5.10;2.05;;;;;;;16.90;69.97;100767.59;5078519;28;20049;-64
2023/07/21 03:28:02;;;;;;;3.45;1.88;;;;;;;16.78;70.53;100771.25;5068674;28;20075;-64
2023/07/21 03:30:32;;;;;;;4.25;2.20;;;;;;;16.97;69.58;100761.44;5054666;28;20152;-64
2023/07/21 03:33:11;;;;;;;5.63;1.90;;;;;;;17.14;68.86;100766.69;5054715;28;20048;-65
2023/07/21 03:35:38;;;;;;;5.22;2.33;;;;;;;16.67;70.72;100759.00;5078067;28;20044;-64
2023/07/21 03:38:06;;;;;;;4.38;1.95;;;;;;;16.85;70.82;100760.34;5091084;28;20055;-64
2023/07/21 03:40:34;;;;;;;7.22;2.30;;;;;;;16.86;71.26;100755.56;5092000;28;20048;-64
2023/07/21 03:43:01;;;;;;;5.28;2.00;;;;;;;17.13;70.51;100754.75;5093355;28;20051;-64
2023/07/21 03:45:29;;;;;;;6.32;1.88;;;;;;;17.33;69.43;100759.25;5074056;28;20059;-64
2023/07/21 03:47:57;;;;;;;4.45;2.05;;;;;;;17.36;68.54;100761.34;5083960;28;20048;-63
2023/07/21 03:50:25;;;;;;;5.63;1.80;;;;;;;17.56;67.97;100763.09;5076063;28;20055;-60
2023/07/21 03:52:53;;;;;;;5.20;1.98;;;;;;;17.01;70.00;100779.84;5074725;28;20048;-59
2023/07/21 03:55:23;;;;;;;9.80;2.05;;;;;;;17.21;69.42;100778.03;5080867;28;20055;-60
2023/07/21 03:57:50;;;;;;;4.68;1.85;;;;;;;17.42;69.11;100778.56;5111425;28;20056;-61
2023/07/21 04:00:18;;;;;;;4.38;2.00;;;;;;;16.67;71.24;100778.47;5077687;28;20048;-59
2023/07/21 04:02:46;;;;;;;8.15;2.38;;;;;;;16.57;72.95;100775.38;5095646;28;20054;-64
2023/07/21 04:05:13;;;;;;;6.10;2.35;;;;;;;16.67;72.70;100774.88;5077354;28;20067;-60
2023/07/21 04:07:40;;;;;;;4.78;2.22;;;;;;;16.70;73.39;100774.97;5094965;28;20058;-59
2023/07/21 04:10:08;;;;;;;7.00;2.35;;;;;;;16.88;72.63;100780.28;5058783;28;20059;-60
2023/07/21 04:12:36;;;;;;;4.40;2.33;;;;;;;17.06;72.16;100782.38;5072483;28;20052;-61
2023/07/21 04:15:04;;;;;;;3.75;1.67;;;;;;;17.08;71.80;100774.50;5086698;28;20051;-65
2023/07/21 04:17:31;;;;;;;9.00;2.55;;;;;;;16.91;72.57;100772.03;5060230;28;20056;-61
2023/07/21 04:19:58;;;;;;;5.45;2.20;;;;;;;17.03;72.39;100777.53;5054960;28;20048;-58
2023/07/21 04:22:26;;;;;;;4.22;2.13;;;;;;;17.45;71.10;100777.88;5074447;28;20706;-65
2023/07/21 04:24:54;;;;;;;7.70;2.40;;;;;;;17.76;68.87;100778.75;5089219;28;20055;-64
2023/07/21 04:27:24;;;;;;;5.95;1.88;;;;;;;17.75;67.80;100776.28;5058745;28;20169;-66
2023/07/21 04:29:51;;;;;;;3.83;1.55;;;;;;;17.72;67.68;100780.63;5074808;28;20044;-65
2023/07/21 04:32:19;;;;;;;3.58;1.73;;;;;;;17.63;67.68;100788.34;5074531;28;20052;-64
2023/07/21 04:34:47;;;;;;;7.93;1.95;;;;;;;17.59;67.14;100792.22;5092780;28;20430;-65
2023/07/21 04:37:14;;;;;;;3.42;1.85;;;;;;;17.07;69.03;100778.44;5096863;28;20052;-64
2023/07/21 04:39:48;;;;;;;4.80;1.70;;;;;;;17.13;69.49;100782.59;5071124;28;20044;-65
2023/07/21 04:42:15;;;;;;;7.65;2.13;;;;;;;16.91;70.42;100776.78;5061572;28;20067;-63
2023/07/21 04:44:44;;;;;;;3.60;1.73;;;;;;;16.84;69.96;100775.41;5110734;28;20040;-60
2023/07/21 04:47:12;;;;;;;4.68;2.05;;;;;;;16.66;69.90;100764.94;5115212;28;20414;-64
2023/07/21 04:49:56;;;;;;;3.47;1.55;;;;;;;17.00;69.61;100758.75;5082753;28;20411;-61
2023/07/21 04:52:23;;;;;;;3.10;1.70;;;;;;;17.26;68.56;100767.41;5089744;28;20044;-60
2023/07/21 04:54:51;;;;;;;6.05;2.20;;;;;;;17.13;69.44;100760.31;5077748;28;20748;-60
2023/07/21 04:57:19;;;;;;;7.50;2.20;;;;;;;17.29;69.21;100757.56;5097652;28;20048;-60
2023/07/21 04:59:47;;;;;;;7.57;2.15;;;;;;;17.39;69.58;100757.03;5097393;28;20052;-61
2023/07/21 05:02:15;;;;;;;11.23;2.63;;;;;;;17.63;68.85;100762.44;5096003;28;20576;-60
2023/07/21 05:04:42;;;;;;;8.40;2.05;;;;;;;17.90;68.50;100762.34;5111125;28;20047;-63
2023/07/21 05:07:10;;;;;;;9.10;2.13;;;;;;;18.14;67.54;100754.94;5096273;28;20549;-62
2023/07/21 05:09:37;;;;;;;6.80;2.08;;;;;;;18.15;67.19;100751.00;5097976;28;20055;-62
2023/07/21 05:12:10;;;;;;;5.60;2.40;;;;;;;17.95;67.59;100756.53;5095176;28;20063;-60
2023/07/21 05:14:59;;;;;;;3.67;2.35;;;;;;;18.05;67.50;100763.50;5113468;28;20063;-60
2023/07/21 05:17:42;;;;;;;4.82;2.28;;;;;;;18.11;68.06;100762.06;5085667;28;20104;-62
2023/07/21 05:20:19;;;;;;;4.72;2.03;;;;;;;18.01;67.86;100762.59;5115396;28;20075;-61
2023/07/21 05:23:16;;;;;;;5.60;2.28;;;;;;;17.86;68.76;100766.22;5092457;28;20051;-60
2023/07/21 05:26:11;;;;;;;7.15;2.20;;;;;;;18.18;67.82;100761.41;5110356;28;20062;-59
2023/07/21 05:28:38;;;;;;;4.78;1.90;;;;;;;18.32;66.94;100768.13;5096385;28;20047;-60
2023/07/21 05:31:11;;;;;;;3.97;1.77;;;;;;;18.38;65.92;100763.88;5096112;28;20051;-62
2023/07/21 05:33:58;;;;;;;6.03;1.83;;;;;;;18.51;65.47;100768.19;5089704;28;20056;-61
2023/07/21 05:36:26;;;;;;;4.03;2.08;;;;;;;18.48;65.72;100760.53;5115928;27;20055;-61
2023/07/21 05:38:54;;;;;;;5.55;2.00;;;;;;;18.34;66.40;100751.81;5097423;28;20055;-61
2023/07/21 05:41:22;;;;;;;4.50;2.00;;;;;;;18.67;65.08;100756.97;5096685;28;20415;-60
2023/07/21 05:43:49;;;;;;;5.68;1.83;;;;;;;18.46;64.26;100756.50;5063545;28;20055;-61
2023/07/21 05:46:17;;;;;;;6.68;2.28;;;;;;;17.89;65.74;100754.34;5095284;28;20055;-64
2023/07/21 05:48:54;;;;;;;5.63;1.67;;;;;;;17.94;65.27;100748.50;5092805;28;20059;-60
2023/07/21 05:51:22;;;;;;;3.35;1.60;;;;;;;17.99;65.52;100754.59;5101089;28;20043;-61
2023/07/21 05:53:54;;;;;;;5.40;1.95;;;;;;;18.24;64.54;100748.78;5004790;28;20519;-60
2023/07/21 05:56:23;;;;;;;4.45;1.88;;;;;;;18.28;62.79;100766.41;5072923;28;20052;-64
2023/07/21 05:58:58;;;;;;;4.28;1.88;;;;;;;17.84;64.32;100762.97;5112832;28;20063;-65
2023/07/21 06:01:27;;;;;;;4.07;1.80;;;;;;;17.97;64.54;100762.50;5095713;28;20772;-65
2023/07/21 06:03:55;;;;;;;5.68;1.85;;;;;;;17.91;64.85;100760.38;5089299;27;20066;-65
2023/07/21 06:06:23;;;;;;;3.25;1.70;;;;;;;18.09;63.41;100763.59;5107290;27;20048;-65
2023/07/21 06:09:07;;;;;;;5.63;1.95;;;;;;;17.89;65.46;100782.22;5091070;28;20066;-66
2023/07/21 06:11:52;;;;;;;5.55;2.17;;;;;;;17.50;66.25;100786.00;5102058;28;20059;-64
2023/07/21 06:14:32;;;;;;;6.13;2.33;;;;;;;16.91;67.40;100783.16;5075436;28;20052;-65
2023/07/21 06:17:19;;;;;;;7.20;2.83;;;;;;;16.81;66.28;100772.50;5078187;28;20071;-64
2023/07/21 06:19:47;;;;;;;8.45;3.33;;;;;;;16.62;66.54;100769.56;5113378;28;20070;-65
2023/07/21 06:22:15;;;;;;;5.82;3.10;;;;;;;17.07;65.60;100767.28;5095877;28;20054;-65
2023/07/21 06:24:43;;;;;;;7.90;3.35;;;;;;;17.15;65.39;100779.44;5017130;28;20047;-64
2023/07/21 06:27:12;;;;;;;5.88;2.58;;;;;;;17.91;63.93;100789.06;5068342;28;20642;-65
2023/07/21 06:29:39;;;;;;;7.32;2.75;;;;;;;17.91;62.93;100782.66;5094233;28;20058;-65
2023/07/21 06:32:09;;;;;;;8.95;3.90;;;;;;;17.28;64.58;100778.19;5095419;28;20147;-64
2023/07/21 06:34:56;;;;;;;7.10;3.63;;;;;;;17.17;65.51;100774.31;5113746;28;20055;-64
2023/07/21 06:37:38;;;;;;;6.18;3.08;;;;;;;17.50;65.13;100786.00;5091133;28;20062;-64
2023/07/21 06:40:23;;;;;;;9.00;3.50;;;;;;;17.66;64.68;100786.81;5108424;28;20055;-64
2023/07/21 06:43:23;;;;;;;9.07;3.55;;;;;;;17.99;63.82;100779.69;5089467;28;20052;-64
2023/07/21 06:46:17;;;;;;;7.20;2.80;;;;;;;18.34;62.74;100787.28;5100310;27;20067;-64
2023/07/21 06:49:02;;;;;;;7.57;3.30;;;;;;;18.26;63.04;100797.47;5089538;28;20045;-65
2023/07/21 06:51:42;;;;;;;9.48;3.30;;;;;;;17.71;65.50;100787.34;5107241;28;20054;-67
2023/07/21 06:54:09;;;;;;;9.88;3.50;;;;;;;18.16;63.89;100784.09;5108572;28;20048;-66
2023/07/21 06:56:38;;;;;;;8.65;2.90;;;;;;;17.89;64.79;100782.22;5062411;28;20055;-65
2023/07/21 06:59:05;;;;;;;11.45;3.40;;;;;;;17.60;65.99;100779.88;5084404;28;20055;-65
2023/07/21 07:01:34;;;;;;;7.18;3.47;;;;;;;18.09;64.37;100783.09;5092727;28;20055;-66
2023/07/21 07:04:02;;;;;;;9.07;3.50;;;;;;;18.39;64.10;100773.88;5108173;28;20040;-67
2023/07/21 07:06:30;;;;;;;7.95;3.58;;;;;;;18.82;62.15;100773.66;5106025;28;20055;-65
2023/07/21 07:08:59;;;;;;;6.57;2.88;;;;;;;18.94;61.94;100775.47;5107025;28;20051;-64
2023/07/21 07:11:27;;;;;;;9.38;3.13;;;;;;;19.14;60.97;100777.06;5084275;28;20059;-66
2023/07/21 07:13:55;;;;;;;10.10;2.97;;;;;;;19.23;59.97;100786.00;5110120;28;20525;-65
2023/07/21 07:16:24;;;;;;;6.88;2.67;;;;;;;19.26;60.01;100778.88;5086709;28;20055;-66
2023/07/21 07:18:51;;;;;;;9.13;3.03;;;;;;;19.15;60.21;100791.81;5108714;28;20150;-64
2023/07/21 07:21:20;;;;;;;11.07;2.72;;;;;;;18.62;61.44;100787.97;5088835;28;20066;-65
2023/07/21 07:23:48;;;;;;;6.70;2.53;;;;;;;18.57;62.15;100785.44;5088335;28;20040;-65
2023/07/21 07:26:15;;;;;;;9.85;2.75;;;;;;;18.17;63.62;100785.69;5090674;28;20052;-65
2023/07/21 07:28:42;;;;;;;8.55;2.70;;;;;;;18.38;63.44;100785.38;5108644;28;20044;-64
2023/07/21 07:31:10;;;;;;;6.55;2.70;;;;;;;18.02;64.23;100791.28;5104263;28;20517;-65
2023/07/21 07:33:37;;;;;;;7.93;2.85;;;;;;;18.28;63.69;100789.53;5105325;28;20685;-65
2023/07/21 07:36:04;;;;;;;7.18;2.95;;;;;;;18.63;62.42;100787.59;5108731;28;20052;-65
2023/07/21 07:38:32;;;;;;;6.13;2.63;;;;;;;18.27;63.17;100801.06;5107255;28;20526;-65
2023/07/21 07:41:01;;;;;;;8.40;2.88;;;;;;;17.85;65.28;100804.41;5105048;28;20039;-65
2023/07/21 07:43:28;;;;;;;6.75;2.50;;;;;;;18.04;65.34;100800.09;5086010;28;20047;-64
2023/07/21 07:45:59;;;;;;;9.27;2.92;;;;;;;18.35;64.28;100805.63;5102716;28;20055;-63
2023/07/21 07:48:26;;;;;;;6.60;3.30;;;;;;;18.11;65.12;100792.72;5105113;28;20047;-65
2023/07/21 07:50:55;;;;;;;7.05;3.40;;;;;;;18.28;65.63;100800.69;5101394;28;20489;-65
2023/07/21 07:53:22;;;;;;;8.70;3.40;;;;;;;18.59;64.45;100800.66;5102302;28;20143;-64
2023/07/21 07:55:49;;;;;;;6.82;3.67;;;;;;;18.73;64.55;100811.28;5108302;28;20043;-65
2023/07/21 07:58:17;;;;;;;9.70;3.20;;;;;;;18.64;64.77;100802.31;5107289;28;20078;-64
2023/07/21 08:00:45;;;;;;;8.80;3.50;;;;;;;19.22;63.18;100806.75;5112014;28;20074;-62
2023/07/21 08:03:14;;;;;;;11.10;3.60;;;;;;;19.33;61.98;100809.78;5104215;28;20066;-63
2023/07/21 08:05:41;;;;;;;7.78;3.20;;;;;;;19.88;61.02;100806.38;5109908;28;20039;-63
2023/07/21 08:08:09;;;;;;;5.35;3.05;;;;;;;19.36;61.69;100815.44;5088189;28;20048;-64
2023/07/21 08:10:41;;;;;;;6.65;3.30;;;;;;;19.05;63.82;100812.78;5105390;28;20067;-65
2023/07/21 08:13:09;;;;;;;5.70;3.10;;;;;;;18.86;64.95;100813.56;5093640;28;20051;-62
2023/07/21 08:15:40;;;;;;;12.05;3.30;;;;;;;19.23;63.94;100804.78;5078433;28;20051;-63
2023/07/21 08:18:07;;;;;;;8.57;3.17;;;;;;;19.20;64.49;100808.28;5102504;28;20478;-62
2023/07/21 08:20:39;;;;;;;7.13;3.22;;;;;;;19.30;63.99;100814.09;5108754;28;20413;-64
2023/07/21 08:23:07;;;;;;;10.32;3.20;;;;;;;19.64;62.81;100812.34;5111944;28;20055;-62
2023/07/21 08:25:54;;;;;;;9.18;3.70;;;;;;;19.86;62.36;100814.34;5049063;28;20049;-62
2023/07/21 08:28:21;;;;;;;8.57;3.47;;;;;;;19.76;61.66;100820.56;5068654;28;20047;-64
2023/07/21 08:30:48;;;;;;;7.45;4.10;;;;;;;19.59;62.08;100821.06;5110931;28;20047;-64
2023/07/21 08:33:26;;;;;;;10.23;3.70;;;;;;;19.32;63.14;100822.16;5103939;28;20047;-63
2023/07/21 08:35:54;;;;;;;7.88;3.70;;;;;;;19.50;63.21;100817.69;5107405;28;20031;-63
2023/07/21 08:38:22;;;;;;;10.80;3.60;;;;;;;19.45;62.86;100824.41;5101456;28;20060;-64
2023/07/21 08:41:02;;;;;;;8.80;3.78;;;;;;;19.63;62.28;100822.72;5088637;28;20048;-64
2023/07/21 08:43:30;;;;;;;6.40;3.55;;;;;;;19.97;61.76;100818.94;5097005;28;20043;-64
2023/07/21 08:46:00;;;;;;;8.32;3.25;;;;;;;20.03;60.10;100811.06;5071359;28;20579;-65
2023/07/21 08:48:28;;;;;;;14.35;3.55;;;;;;;20.31;59.87;100803.13;5068331;28;20060;-64
2023/07/21 08:50:56;;;;;;;7.57;3.40;;;;;;;20.41;58.97;100819.28;5086999;28;20051;-65
2023/07/21 08:53:24;;;;;;;7.53;3.65;;;;;;;20.08;58.98;100813.53;5090809;28;20056;-65
2023/07/21 08:55:56;;;;;;;8.55;3.38;;;;;;;20.09;60.14;100810.34;5066672;28;20055;-65
2023/07/21 08:58:24;;;;;;;12.43;5.03;;;;;;;20.50;59.47;100807.81;5089390;28;20052;-65
2023/07/21 09:00:57;;;;;;;7.85;3.63;;;;;;;20.30;58.64;100818.31;5090539;28;20059;-65
2023/07/21 09:03:27;;;;;;;7.20;3.47;;;;;;;20.64;58.73;100805.22;5088912;28;20048;-66
2023/07/21 09:05:56;;;;;;;8.40;3.55;;;;;;;20.43;58.81;100816.09;5092163;28;20036;-65
2023/07/21 09:08:27;;;;;;;7.28;3.30;;;;;;;20.56;59.29;100820.28;5086504;28;20048;-66
2023/07/21 09:11:02;;;;;;;7.28;3.22;;;;;;;20.44;58.69;100814.91;5071869;28;20054;-65
2023/07/21 09:13:30;;;;;;;8.60;3.03;;;;;;;20.06;59.49;100811.13;5090095;28;20059;-64
2023/07/21 09:16:00;;;;;;;7.10;3.00;;;;;;;20.17;59.38;100814.13;5068095;28;20059;-63
2023/07/21 09:18:29;;;;;;;11.48;3.28;;;;;;;20.46;59.29;100802.16;5089043;28;20060;-65
2023/07/21 09:20:57;;;;;;;8.63;3.40;;;;;;;20.13;59.63;100805.63;5086641;28;20051;-65
2023/07/21 09:23:26;;;;;;;5.82;3.35;;;;;;;19.89;58.99;100817.19;5047906;28;20071;-64
2023/07/21 09:25:56;;;;;;;6.47;3.13;;;;;;;20.01;59.73;100813.41;5083441;28;20507;-65
2023/07/21 09:28:40;;;;;;;7.50;3.42;;;;;;;20.39;57.41;100812.44;5088795;28;20052;-66
2023/07/21 09:31:08;;;;;;;10.18;3.10;;;;;;;20.13;57.28;100818.81;5085834;28;20055;-63
2023/07/21 09:33:42;;;;;;;5.80;3.33;;;;;;;19.83;59.43;100815.91;5067456;28;20044;-65
2023/07/21 09:36:12;;;;;;;27.13;4.00;;;;;;;20.01;60.25;100799.44;5065369;28;20040;-65
2023/07/21 09:38:39;;;;;;;9.80;3.58;;;;;;;20.05;58.39;100808.66;5058741;28;20538;-67
2023/07/21 09:41:09;;;;;;;6.40;2.80;;;;;;;19.97;55.50;100818.94;5093478;28;20422;-64
2023/07/21 09:43:37;;;;;;;10.05;2.70;;;;;;;20.20;55.20;100809.75;5102859;28;20055;-64
2023/07/21 09:46:07;;;;;;;7.60;3.22;;;;;;;20.25;56.09;100807.44;5101680;28;20046;-65
2023/07/21 09:48:54;;;;;;;6.68;3.03;;;;;;;20.66;55.20;100803.63;5108718;28;20082;-66
2023/07/21 09:51:21;;;;;;;7.38;3.05;;;;;;;20.66;55.35;100814.03;5110603;28;20047;-67
2023/07/21 09:53:49;;;;;;;5.97;3.03;;;;;;;20.02;55.22;100821.44;5087968;28;20052;-65
2023/07/21 09:56:19;;;;;;;7.90;3.20;;;;;;;20.09;55.91;100817.94;5090775;28;20055;-64
2023/07/21 09:58:53;;;;;;;10.38;4.35;;;;;;;20.58;55.24;100818.72;5083945;28;20075;-64
2023/07/21 10:01:22;;;;;;;10.18;4.57;;;;;;;20.93;54.82;100810.00;5077064;28;20047;-65
2023/07/21 10:03:50;;;;;;;7.55;4.70;;;;;;;21.41;53.28;100808.19;5050576;28;20051;-63
2023/07/21 10:06:19;;;;;;;7.22;3.03;;;;;;;20.93;53.20;100810.00;5104724;28;20109;-65
2023/07/21 10:08:47;;;;;;;6.32;3.72;;;;;;;20.55;54.54;100832.66;5095076;28;20453;-64
2023/07/21 10:11:14;;;;;;;7.43;3.00;;;;;;;20.75;53.63;100817.34;5105826;28;21019;-64
2023/07/21 10:13:46;;;;;;;8.77;3.53;;;;;;;21.07;51.95;100825.03;5104512;28;20047;-64
2023/07/21 10:16:14;;;;;;;5.35;3.25;;;;;;;20.70;52.13;100826.88;5104374;28;20054;-63
2023/07/21 10:19:01;;;;;;;6.25;3.05;;;;;;;20.57;51.29;100821.91;5103880;28;21806;-63
2023/07/21 10:21:30;;;;;;;15.70;8.35;;;;;;;20.50;52.03;100814.22;5107330;28;20048;-63
2023/07/21 10:24:01;;;;;;;12.75;3.70;;;;;;;20.78;52.17;100817.41;5085267;28;20494;-62
2023/07/21 10:26:30;;;;;;;8.13;3.28;;;;;;;21.05;51.94;100812.56;5075029;28;20054;-63
2023/07/21 10:29:14;;;;;;;8.38;3.58;;;;;;;21.13;50.95;100819.91;5100665;28;20044;-64
2023/07/21 10:31:51;;;;;;;4.97;3.33;;;;;;;20.76;50.58;100813.38;5102131;28;20046;-62
2023/07/21 10:34:18;;;;;;;8.60;4.18;;;;;;;20.85;50.30;100811.09;5087515;28;20051;-63
2023/07/21 10:36:52;;;;;;;10.50;3.70;;;;;;;21.03;50.35;100812.16;5100660;28;20032;-65
2023/07/21 10:39:21;;;;;;;9.93;3.67;;;;;;;21.13;50.56;100823.47;5060091;28;20059;-63
2023/07/21 10:41:51;;;;;;;8.38;2.83;;;;;;;21.53;49.28;100814.31;5105539;28;20070;-63
2023/07/21 10:44:19;;;;;;;9.18;3.50;;;;;;;21.13;48.14;100826.28;5108840;28;20514;-65
2023/07/21 10:46:47;;;;;;;8.93;4.75;;;;;;;21.04;48.30;100811.75;5103998;28;20051;-64
2023/07/21 10:49:17;;;;;;;14.27;6.88;;;;;;;21.59;48.22;100809.19;5105551;28;20548;-64
2023/07/21 10:51:48;;;;;;;6.83;3.77;;;;;;;22.10;47.38;100799.69;5104245;28;20047;-63
2023/07/21 10:54:22;;;;;;;7.07;4.18;;;;;;;21.68;46.78;100806.88;5091292;28;20305;-63
2023/07/21 10:56:55;;;;;;;7.20;3.40;;;;;;;20.90;48.68;100810.75;5087589;28;20044;-65
2023/07/21 10:59:25;;;;;;;7.43;3.25;;;;;;;20.83;48.59;100819.88;5084350;28;20097;-63
2023/07/21 11:01:56;;;;;;;7.60;2.90;;;;;;;21.02;46.26;100813.34;5086030;28;20044;-62
2023/07/21 11:04:30;;;;;;;8.40;2.95;;;;;;;21.47;46.02;100807.47;5083603;28;20066;-62
2023/07/21 11:07:07;;;;;;;5.53;3.45;;;;;;;22.12;45.43;100807.69;5072937;28;20031;-63
2023/07/21 11:09:43;;;;;;;6.75;3.15;;;;;;;21.37;46.64;100826.97;5106263;28;20399;-65
2023/07/21 11:12:11;;;;;;;7.50;3.35;;;;;;;21.45;47.39;100818.25;5101653;28;20047;-62
2023/07/21 11:14:39;;;;;;;6.05;3.42;;;;;;;21.56;46.79;100802.34;5103052;28;20050;-64
2023/07/21 11:17:06;;;;;;;7.55;3.25;;;;;;;21.66;46.50;100801.66;5108167;28;20916;-63
2023/07/21 11:19:35;;;;;;;6.85;3.28;;;;;;;21.84;45.66;100811.06;5104362;28;20051;-62
2023/07/21 11:22:07;;;;;;;9.07;4.15;;;;;;;21.82;45.44;100805.03;5087972;28;20040;-61
2023/07/21 11:24:34;;;;;;;9.00;5.18;;;;;;;22.33;44.49;100797.41;5109140;28;20044;-59
2023/07/21 11:27:05;;;;;;;8.50;3.88;;;;;;;22.73;43.92;100795.69;5081453;28;20048;-59
2023/07/21 11:29:42;;;;;;;6.45;3.80;;;;;;;23.19;43.16;100797.50;5069206;28;20506;-60
2023/07/21 11:32:22;;;;;;;5.25;2.58;;;;;;;23.29;42.51;100795.97;5080322;28;20058;-59
2023/07/21 11:34:58;;;;;;;5.45;3.20;;;;;;;22.77;42.33;100805.72;5096690;28;20048;-59
2023/07/21 11:37:35;;;;;;;5.45;2.28;;;;;;;22.38;40.80;100801.06;5110749;28;20062;-60
2023/07/21 11:40:08;;;;;;;6.03;2.25;;;;;;;22.42;40.97;100796.28;5097033;28;20063;-60